createdAt,value
2019-03-08T00:00:46.965Z,22.55
2019-03-08T00:01:55.634Z,18.17
2019-03-08T00:03:02.681Z,18.12
2019-03-08T00:04:11.129Z,22.35
2019-03-08T00:05:18.653Z,22.37
2019-03-08T00:06:26.988Z,20.20
2019-03-08T00:07:34.197Z,21.40
2019-03-08T00:08:41.277Z,18.67
2019-03-08T00:09:48.208Z,16.95
2019-03-08T00:10:55.652Z,13.10
2019-03-08T00:12:02.962Z,16.20
2019-03-08T00:13:11.730Z,15.53
2019-03-08T00:14:19.072Z,16.75
2019-03-08T00:15:26.520Z,15.53
2019-03-08T00:16:34.103Z,13.95
2019-03-08T00:17:41.509Z,15.32
2019-03-08T00:18:49.666Z,14.73
2019-03-08T00:19:57.191Z,13.90
2019-03-08T00:21:05.243Z,15.68
2019-03-08T00:22:12.445Z,12.68
2019-03-08T00:23:19.448Z,14.55
2019-03-08T00:24:26.537Z,13.20
2019-03-08T00:25:33.920Z,14.93
2019-03-08T00:26:41.141Z,15.30
2019-03-08T00:27:48.452Z,17.70
2019-03-08T00:28:55.719Z,15.83
2019-03-08T00:30:02.737Z,16.75
2019-03-08T00:31:11.374Z,14.60
2019-03-08T00:32:18.732Z,16.82
2019-03-08T00:33:26.028Z,16.90
2019-03-08T00:34:33.176Z,18.32
2019-03-08T00:35:40.671Z,17.85
2019-03-08T00:36:48.160Z,18.02
2019-03-08T00:37:55.382Z,19.05
2019-03-08T00:39:02.599Z,18.62
2019-03-08T00:40:11.298Z,25.52
2019-03-08T00:41:18.445Z,19.70
2019-03-08T00:42:26.052Z,20.27
2019-03-08T00:43:33.913Z,20.43
2019-03-08T00:44:41.224Z,19.60
2019-03-08T00:45:48.542Z,20.32
2019-03-08T00:46:55.738Z,16.62
2019-03-08T00:48:02.875Z,22.87
2019-03-08T00:49:10.226Z,21.93
2019-03-08T00:50:17.730Z,18.52
2019-03-08T00:51:24.975Z,20.90
2019-03-08T00:52:33.108Z,18.23
2019-03-08T00:53:40.412Z,18.30
2019-03-08T00:54:47.462Z,18.05
2019-03-08T00:55:54.714Z,20.00
2019-03-08T00:57:01.944Z,19.65
2019-03-08T00:58:09.323Z,17.82
2019-03-08T00:59:16.764Z,20.15
2019-03-08T01:00:25.459Z,20.15
2019-03-08T01:01:32.707Z,19.37
2019-03-08T01:02:39.693Z,18.82
2019-03-08T01:03:47.297Z,15.40
2019-03-08T01:04:54.240Z,17.87
2019-03-08T01:06:01.435Z,15.83
2019-03-08T01:07:08.507Z,16.02
2019-03-08T01:08:16.813Z,17.12
2019-03-08T01:09:24.234Z,15.25
2019-03-08T01:10:32.236Z,15.40
2019-03-08T01:11:40.500Z,15.75
2019-03-08T01:12:47.943Z,16.23
2019-03-08T01:13:54.701Z,17.77
2019-03-08T01:15:01.459Z,15.83
2019-03-08T01:16:09.701Z,17.12
2019-03-08T01:17:16.755Z,17.82
2019-03-08T01:18:23.980Z,18.92
2019-03-08T01:19:31.200Z,15.53
2019-03-08T01:20:38.544Z,13.40
2019-03-08T01:21:45.608Z,14.70
2019-03-08T01:22:52.942Z,15.28
2019-03-08T01:24:00.208Z,14.13
2019-03-08T01:25:08.101Z,13.40
2019-03-08T01:26:15.416Z,13.40
2019-03-08T01:27:22.560Z,17.30
2019-03-08T01:28:29.794Z,14.35
2019-03-08T01:29:38.309Z,13.53
2019-03-08T01:30:47.381Z,12.75
2019-03-08T01:31:54.709Z,13.65
2019-03-08T01:33:02.840Z,12.15
2019-03-08T01:34:09.858Z,11.33
2019-03-08T01:35:19.759Z,13.90
2019-03-08T01:36:26.789Z,12.50
2019-03-08T01:37:34.148Z,11.55
2019-03-08T01:38:41.022Z,13.78
2019-03-08T01:39:48.237Z,12.18
2019-03-08T01:40:55.361Z,15.58
2019-03-08T01:42:02.496Z,14.07
2019-03-08T01:43:09.459Z,13.13
2019-03-08T01:44:17.169Z,12.28
2019-03-08T01:45:24.257Z,11.30
2019-03-08T01:46:31.476Z,10.40
2019-03-08T01:47:40.122Z,13.22
2019-03-08T01:48:47.888Z,9.98
2019-03-08T01:49:54.951Z,12.40
2019-03-08T01:51:02.006Z,11.03
2019-03-08T01:52:09.129Z,10.00
2019-03-08T01:53:17.337Z,12.30
2019-03-08T01:54:24.289Z,10.18
2019-03-08T01:55:31.171Z,9.60
2019-03-08T01:56:38.150Z,10.48
2019-03-08T01:57:45.352Z,9.63
2019-03-08T01:58:52.237Z,12.43
2019-03-08T01:59:59.080Z,11.33
2019-03-08T02:01:06.378Z,8.30
2019-03-08T02:02:13.739Z,11.03
2019-03-08T02:03:20.781Z,9.25
2019-03-08T02:04:27.932Z,10.55
2019-03-08T02:05:35.428Z,9.00
2019-03-08T02:06:42.360Z,10.50
2019-03-08T02:07:49.341Z,7.53
2019-03-08T02:08:56.419Z,11.90
2019-03-08T02:10:03.923Z,9.05
2019-03-08T02:11:10.997Z,8.23
2019-03-08T02:12:18.305Z,11.40
2019-03-08T02:13:25.903Z,9.65
2019-03-08T02:14:33.755Z,10.58
2019-03-08T02:15:40.737Z,8.78
2019-03-08T02:16:48.926Z,9.98
2019-03-08T02:17:56.092Z,10.82
2019-03-08T02:19:03.263Z,12.43
2019-03-08T02:20:12.644Z,10.08
2019-03-08T02:21:19.850Z,13.93
2019-03-08T02:22:26.818Z,11.78
2019-03-08T02:23:33.674Z,9.68
2019-03-08T02:24:40.609Z,11.65
2019-03-08T02:25:47.719Z,8.63
2019-03-08T02:26:55.024Z,10.08
2019-03-08T02:28:01.894Z,8.38
2019-03-08T02:29:09.382Z,8.73
2019-03-08T02:30:17.626Z,8.53
2019-03-08T02:31:25.300Z,9.00
2019-03-08T02:32:32.706Z,8.20
2019-03-08T02:33:39.841Z,8.38
2019-03-08T02:34:47.601Z,9.03
2019-03-08T02:35:54.973Z,8.08
2019-03-08T02:37:01.991Z,6.90
2019-03-08T02:38:08.903Z,5.90
2019-03-08T02:39:16.021Z,8.98
2019-03-08T02:40:36.826Z,6.67
2019-03-08T02:41:44.006Z,6.30
2019-03-08T02:42:51.219Z,6.70
2019-03-08T02:43:58.508Z,5.95
2019-03-08T02:45:07.473Z,7.22
2019-03-08T02:46:14.810Z,6.08
2019-03-08T02:47:21.972Z,8.13
2019-03-08T02:48:29.544Z,7.85
2019-03-08T02:49:36.898Z,6.83
2019-03-08T02:50:45.661Z,6.92
2019-03-08T02:51:52.820Z,7.45
2019-03-08T02:53:00.299Z,5.95
2019-03-08T02:54:07.729Z,6.58
2019-03-08T02:55:14.637Z,6.85
2019-03-08T02:56:21.770Z,7.08
2019-03-08T02:57:29.126Z,5.95
2019-03-08T02:58:36.196Z,8.00
2019-03-08T02:59:43.210Z,11.18
2019-03-08T03:00:50.438Z,5.75
2019-03-08T03:01:57.728Z,6.87
2019-03-08T03:03:05.356Z,6.67
2019-03-08T03:04:12.246Z,6.25
2019-03-08T03:05:19.628Z,5.33
2019-03-08T03:06:26.740Z,6.03
2019-03-08T03:07:33.901Z,6.90
2019-03-08T03:08:41.074Z,7.62
2019-03-08T03:09:48.124Z,5.92
2019-03-08T03:10:55.408Z,7.92
2019-03-08T03:12:02.191Z,6.87
2019-03-08T03:13:09.151Z,5.55
2019-03-08T03:14:16.225Z,8.20
2019-03-08T03:15:23.431Z,5.55
2019-03-08T03:16:30.767Z,6.72
2019-03-08T03:17:37.856Z,5.42
2019-03-08T03:18:46.831Z,6.03
2019-03-08T03:19:53.929Z,6.72
2019-03-08T03:21:01.110Z,6.28
2019-03-08T03:22:08.039Z,7.62
2019-03-08T03:23:15.261Z,5.03
2019-03-08T03:24:22.606Z,8.98
2019-03-08T03:25:29.646Z,6.62
2019-03-08T03:26:37.996Z,6.53
2019-03-08T03:27:45.505Z,5.12
2019-03-08T03:28:53.688Z,6.55
2019-03-08T03:30:00.671Z,5.75
2019-03-08T03:31:07.786Z,6.08
2019-03-08T03:32:15.027Z,5.40
2019-03-08T03:33:22.328Z,6.20
2019-03-08T03:34:29.350Z,6.37
2019-03-08T03:35:36.319Z,6.45
2019-03-08T03:36:43.616Z,6.35
2019-03-08T03:37:52.016Z,6.35
2019-03-08T03:38:59.286Z,8.25
2019-03-08T03:40:07.484Z,7.20
2019-03-08T03:41:14.473Z,7.20
2019-03-08T03:42:21.858Z,7.67
2019-03-08T03:43:29.384Z,8.33
2019-03-08T03:44:36.478Z,10.60
2019-03-08T03:45:43.722Z,6.55
2019-03-08T03:46:51.190Z,7.97
2019-03-08T03:47:58.114Z,6.67
2019-03-08T03:49:05.157Z,6.08
2019-03-08T03:50:12.637Z,7.45
2019-03-08T03:51:20.084Z,7.12
2019-03-08T03:52:27.492Z,6.55
2019-03-08T03:53:34.730Z,6.92
2019-03-08T03:54:42.158Z,6.60
2019-03-08T03:55:49.757Z,8.90
2019-03-08T03:56:57.426Z,6.62
2019-03-08T03:58:04.680Z,8.23
2019-03-08T03:59:11.930Z,5.85
2019-03-08T04:00:19.584Z,6.97
2019-03-08T04:01:29.811Z,7.80
2019-03-08T04:02:36.939Z,5.05
2019-03-08T04:03:44.174Z,6.85
2019-03-08T04:04:51.296Z,5.95
2019-03-08T04:05:58.398Z,6.10
2019-03-08T04:07:05.564Z,6.55
2019-03-08T04:08:14.217Z,6.58
2019-03-08T04:09:21.568Z,5.40
2019-03-08T04:10:28.912Z,6.95
2019-03-08T04:11:35.936Z,7.58
2019-03-08T04:12:43.172Z,5.92
2019-03-08T04:13:50.842Z,7.05
2019-03-08T04:14:58.189Z,4.70
2019-03-08T04:16:05.030Z,6.47
2019-03-08T04:17:12.510Z,6.25
2019-03-08T04:18:20.062Z,5.60
2019-03-08T04:19:27.146Z,4.75
2019-03-08T04:20:34.403Z,5.90
2019-03-08T04:21:41.760Z,6.20
2019-03-08T04:22:49.450Z,5.85
2019-03-08T04:23:56.740Z,6.35
2019-03-08T04:25:04.015Z,5.97
2019-03-08T04:26:11.087Z,5.50
2019-03-08T04:27:18.694Z,5.92
2019-03-08T04:28:25.775Z,6.58
2019-03-08T04:29:32.855Z,6.22
2019-03-08T04:30:40.290Z,5.58
2019-03-08T04:31:47.456Z,5.12
2019-03-08T04:32:54.410Z,5.67
2019-03-08T04:34:01.710Z,5.08
2019-03-08T04:35:09.088Z,4.97
2019-03-08T04:36:17.275Z,4.65
2019-03-08T04:37:24.689Z,4.87
2019-03-08T04:38:31.754Z,5.40
2019-03-08T04:39:42.021Z,5.42
2019-03-08T04:40:49.176Z,4.97
2019-03-08T04:41:56.119Z,5.78
2019-03-08T04:43:03.333Z,5.78
2019-03-08T04:44:10.401Z,4.90
2019-03-08T04:45:19.205Z,5.72
2019-03-08T04:46:26.173Z,4.90
2019-03-08T04:47:33.328Z,4.75
2019-03-08T04:48:41.248Z,5.35
2019-03-08T04:49:48.309Z,4.45
2019-03-08T04:50:56.767Z,5.20
2019-03-08T04:52:04.019Z,5.10
2019-03-08T04:53:11.511Z,4.90
2019-03-08T04:54:18.748Z,4.70
2019-03-08T04:55:25.919Z,6.62
2019-03-08T04:56:32.921Z,5.90
2019-03-08T04:57:40.191Z,6.47
2019-03-08T04:58:47.513Z,5.70
2019-03-08T04:59:54.601Z,5.42
2019-03-08T05:01:01.783Z,8.30
2019-03-08T05:02:13.541Z,7.15
2019-03-08T05:03:20.748Z,6.87
2019-03-08T05:04:27.858Z,5.70
2019-03-08T05:05:35.628Z,5.92
2019-03-08T05:06:43.240Z,5.30
2019-03-08T05:07:50.612Z,5.62
2019-03-08T05:08:57.555Z,5.25
2019-03-08T05:10:05.109Z,5.55
2019-03-08T05:11:12.211Z,5.15
2019-03-08T05:12:19.654Z,5.10
2019-03-08T05:13:26.751Z,5.55
2019-03-08T05:14:33.930Z,8.63
2019-03-08T05:15:41.027Z,6.65
2019-03-08T05:16:47.920Z,6.08
2019-03-08T05:17:54.873Z,5.05
2019-03-08T05:19:02.299Z,5.75
2019-03-08T05:20:09.458Z,5.20
2019-03-08T05:21:16.606Z,4.90
2019-03-08T05:22:23.550Z,5.33
2019-03-08T05:23:30.673Z,5.60
2019-03-08T05:24:37.949Z,5.92
2019-03-08T05:25:45.037Z,8.25
2019-03-08T05:26:52.151Z,5.42
2019-03-08T05:27:59.329Z,6.72
2019-03-08T05:29:06.309Z,6.78
2019-03-08T05:30:13.910Z,7.42
2019-03-08T05:31:21.048Z,4.97
2019-03-08T05:32:28.336Z,6.20
2019-03-08T05:33:35.589Z,5.00
2019-03-08T05:34:42.962Z,4.62
2019-03-08T05:35:50.400Z,4.85
2019-03-08T05:36:57.574Z,4.30
2019-03-08T05:38:04.545Z,4.33
2019-03-08T05:39:14.225Z,5.85
2019-03-08T05:40:21.420Z,5.28
2019-03-08T05:41:28.457Z,9.20
2019-03-08T05:42:35.441Z,4.37
2019-03-08T05:43:42.560Z,5.30
2019-03-08T05:44:49.950Z,4.17
2019-03-08T05:45:57.113Z,4.28
2019-03-08T05:47:04.749Z,4.78
2019-03-08T05:48:11.902Z,4.87
2019-03-08T05:49:19.154Z,4.58
2019-03-08T05:50:26.017Z,4.90
2019-03-08T05:51:33.398Z,6.72
2019-03-08T05:52:41.682Z,3.70
2019-03-08T05:53:50.052Z,4.67
2019-03-08T05:54:58.644Z,4.00
2019-03-08T05:56:05.717Z,4.08
2019-03-08T05:57:12.604Z,3.42
2019-03-08T05:58:20.016Z,3.58
2019-03-08T05:59:27.177Z,3.40
2019-03-08T06:00:34.639Z,3.87
2019-03-08T06:01:42.804Z,5.78
2019-03-08T06:02:51.600Z,3.92
2019-03-08T06:04:00.478Z,5.20
2019-03-08T06:05:09.313Z,3.58
2019-03-08T06:06:16.695Z,8.38
2019-03-08T06:07:24.138Z,26.02
2019-03-08T06:08:31.474Z,3.17
2019-03-08T06:09:38.858Z,4.37
2019-03-08T06:10:46.029Z,18.07
2019-03-08T06:11:53.283Z,3.15
2019-03-08T06:13:00.756Z,2.52
2019-03-08T06:14:07.825Z,4.20
2019-03-08T06:15:15.207Z,5.72
2019-03-08T06:16:22.337Z,3.35
2019-03-08T06:17:29.879Z,6.00
2019-03-08T06:18:37.060Z,6.90
2019-03-08T06:19:44.445Z,3.27
2019-03-08T06:20:51.670Z,3.15
2019-03-08T06:21:58.525Z,3.87
2019-03-08T06:23:05.871Z,2.60
2019-03-08T06:24:13.175Z,2.17
2019-03-08T06:25:20.606Z,3.27
2019-03-08T06:26:27.724Z,2.60
2019-03-08T06:27:34.942Z,3.30
2019-03-08T06:28:42.208Z,4.67
2019-03-08T06:29:49.286Z,7.87
2019-03-08T06:30:56.297Z,3.72
2019-03-08T06:32:03.554Z,2.52
2019-03-08T06:33:10.819Z,4.15
2019-03-08T06:34:17.942Z,4.00
2019-03-08T06:35:24.989Z,4.33
2019-03-08T06:36:32.471Z,4.12
2019-03-08T06:37:39.863Z,5.00
2019-03-08T06:38:47.056Z,4.08
2019-03-08T06:39:55.385Z,5.00
2019-03-08T06:41:03.793Z,2.72
2019-03-08T06:42:10.909Z,4.28
2019-03-08T06:43:17.766Z,3.90
2019-03-08T06:44:25.353Z,7.25
2019-03-08T06:45:32.555Z,8.75
2019-03-08T06:46:39.837Z,3.00
2019-03-08T06:47:47.151Z,6.67
2019-03-08T06:48:54.381Z,5.60
2019-03-08T06:50:01.655Z,4.58
2019-03-08T06:51:08.776Z,2.72
2019-03-08T06:52:15.904Z,3.70
2019-03-08T06:53:23.039Z,2.37
2019-03-08T06:54:30.406Z,4.85
2019-03-08T06:55:37.738Z,3.50
2019-03-08T06:56:44.932Z,5.45
2019-03-08T06:58:01.483Z,3.40
2019-03-08T06:59:14.432Z,3.60
2019-03-08T07:00:38.158Z,2.65
2019-03-08T07:01:45.336Z,5.78
2019-03-08T07:02:54.074Z,2.27
2019-03-08T07:04:04.921Z,5.90
2019-03-08T07:05:13.223Z,2.10
2019-03-08T07:06:20.389Z,5.05
2019-03-08T07:07:27.773Z,3.30
2019-03-08T07:08:35.132Z,2.30
2019-03-08T07:09:42.922Z,2.27
2019-03-08T07:10:50.187Z,3.08
2019-03-08T07:11:57.549Z,3.37
2019-03-08T07:13:04.774Z,3.90
2019-03-08T07:14:13.518Z,3.02
2019-03-08T07:15:25.394Z,6.03
2019-03-08T07:16:32.791Z,2.25
2019-03-08T07:17:40.148Z,3.10
2019-03-08T07:18:51.805Z,3.22
2019-03-08T07:20:16.541Z,4.55
2019-03-08T07:21:31.779Z,2.20
2019-03-08T07:23:04.206Z,3.08
2019-03-08T07:24:27.589Z,3.70
2019-03-08T07:26:02.071Z,3.85
2019-03-08T07:27:34.545Z,5.10
2019-03-08T07:29:06.714Z,10.05
2019-03-08T07:30:25.708Z,6.40
2019-03-08T07:31:50.865Z,5.95
2019-03-08T07:33:25.884Z,5.50
2019-03-08T07:34:44.809Z,2.30
2019-03-08T07:36:13.725Z,4.78
2019-03-08T07:37:40.267Z,2.90
2019-03-08T07:39:06.780Z,1.77
2019-03-08T07:40:22.487Z,7.05
2019-03-08T07:42:03.422Z,3.98
2019-03-08T07:43:21.375Z,3.35
2019-03-08T07:44:39.543Z,4.15
2019-03-08T07:46:07.288Z,2.30
2019-03-08T07:47:36.217Z,2.70
2019-03-08T07:48:53.016Z,3.65
2019-03-08T07:50:20.672Z,2.58
2019-03-08T07:51:45.453Z,3.08
2019-03-08T07:53:11.686Z,5.87
2019-03-08T07:54:52.471Z,2.42
2019-03-08T07:56:14.286Z,5.47
2019-03-08T07:57:37.316Z,2.15
2019-03-08T07:58:59.269Z,3.50
2019-03-08T08:00:18.799Z,2.92
2019-03-08T08:01:43.273Z,3.37
2019-03-08T08:03:03.645Z,2.50
2019-03-08T08:04:26.916Z,2.75
2019-03-08T08:05:58.247Z,3.75
2019-03-08T08:07:10.649Z,4.10
2019-03-08T08:08:39.405Z,4.80
2019-03-08T08:10:13.302Z,2.05
2019-03-08T08:11:46.005Z,3.27
2019-03-08T08:13:11.907Z,3.30
2019-03-08T08:14:40.695Z,7.85
2019-03-08T08:16:06.918Z,4.95
2019-03-08T08:17:33.560Z,3.27
2019-03-08T08:19:11.547Z,1.80
2019-03-08T08:20:40.127Z,1.95
2019-03-08T08:22:09.715Z,7.30
2019-03-08T08:23:34.917Z,5.42
2019-03-08T08:24:55.314Z,2.98
2019-03-08T08:26:33.313Z,6.75
2019-03-08T08:28:01.784Z,7.20
2019-03-08T08:29:35.267Z,3.52
2019-03-08T08:31:01.721Z,1.60
2019-03-08T08:32:27.923Z,3.00
2019-03-08T08:34:00.077Z,3.25
2019-03-08T08:35:32.948Z,2.05
2019-03-08T08:36:58.902Z,2.22
2019-03-08T08:38:12.843Z,3.12
2019-03-08T08:39:42.712Z,5.58
2019-03-08T08:41:12.208Z,2.20
2019-03-08T08:42:40.994Z,5.15
2019-03-08T08:44:05.267Z,3.90
2019-03-08T08:45:32.860Z,2.50
2019-03-08T08:47:02.827Z,2.02
2019-03-08T08:48:28.645Z,2.15
2019-03-08T08:49:54.271Z,3.80
2019-03-08T08:51:06.230Z,4.50
2019-03-08T08:52:26.646Z,3.55
2019-03-08T08:53:46.781Z,2.92
2019-03-08T08:55:02.988Z,5.47
2019-03-08T08:56:28.064Z,4.83
2019-03-08T08:58:05.767Z,4.78
2019-03-08T08:59:34.434Z,1.75
2019-03-08T09:00:59.025Z,4.40
2019-03-08T09:02:23.617Z,12.35
2019-03-08T09:03:52.385Z,4.95
2019-03-08T09:05:15.363Z,5.30
2019-03-08T09:06:47.852Z,8.93
2019-03-08T09:08:26.418Z,3.65
2019-03-08T09:09:52.879Z,4.83
2019-03-08T09:11:12.505Z,10.20
2019-03-08T09:12:27.044Z,5.55
2019-03-08T09:13:43.371Z,3.35
2019-03-08T09:15:18.677Z,4.12
2019-03-08T09:16:35.723Z,5.65
2019-03-08T09:18:04.666Z,3.65
2019-03-08T09:19:33.702Z,7.75
2019-03-08T09:20:58.430Z,1.60
2019-03-08T09:22:22.925Z,2.12
2019-03-08T09:23:49.155Z,2.87
2019-03-08T09:25:11.612Z,3.37
2019-03-08T09:26:49.775Z,3.37
2019-03-08T09:28:04.125Z,4.33
2019-03-08T09:29:45.506Z,5.33
2019-03-08T09:30:59.647Z,5.37
2019-03-08T09:32:12.126Z,4.12
2019-03-08T09:33:41.518Z,2.35
2019-03-08T09:35:12.418Z,3.85
2019-03-08T09:36:32.680Z,6.12
2019-03-08T09:37:55.215Z,2.90
2019-03-08T09:39:14.356Z,5.12
2019-03-08T09:40:30.315Z,3.35
2019-03-08T09:41:50.820Z,1.92
2019-03-08T09:43:20.196Z,7.08
2019-03-08T09:44:49.078Z,3.77
2019-03-08T09:46:18.362Z,2.50
2019-03-08T09:47:53.915Z,3.40
2019-03-08T09:49:12.078Z,3.90
2019-03-08T09:50:41.640Z,2.58
2019-03-08T09:52:23.843Z,5.20
2019-03-08T09:53:49.126Z,3.83
2019-03-08T09:55:13.402Z,4.05
2019-03-08T09:56:37.999Z,4.33
2019-03-08T09:57:57.186Z,1.75
2019-03-08T09:59:21.942Z,6.47
2019-03-08T10:00:47.962Z,13.90
2019-03-08T10:02:20.334Z,3.15
2019-03-08T10:03:51.859Z,3.92
2019-03-08T10:05:17.481Z,3.52
2019-03-08T10:06:42.165Z,4.20
2019-03-08T10:08:05.418Z,0.98
2019-03-08T10:09:23.874Z,6.65
2019-03-08T10:10:41.922Z,4.25
2019-03-08T10:12:08.151Z,1.40
2019-03-08T10:13:20.698Z,1.57
2019-03-08T10:14:34.289Z,1.87
2019-03-08T10:15:45.908Z,4.10
2019-03-08T10:17:07.649Z,4.92
2019-03-08T10:18:42.984Z,1.47
2019-03-08T10:20:12.272Z,1.75
2019-03-08T10:21:37.444Z,3.58
2019-03-08T10:23:02.239Z,1.25
2019-03-08T10:24:37.582Z,3.95
2019-03-08T10:25:53.990Z,6.87
2019-03-08T10:27:22.740Z,0.95
2019-03-08T10:28:45.098Z,3.50
2019-03-08T10:30:07.640Z,1.50
2019-03-08T10:31:29.687Z,2.83
2019-03-08T10:32:53.923Z,5.08
2019-03-08T10:34:25.759Z,1.35
2019-03-08T10:36:00.787Z,1.67
2019-03-08T10:37:36.418Z,2.55
2019-03-08T10:39:05.344Z,6.25
2019-03-08T10:40:44.224Z,4.00
2019-03-08T10:42:09.041Z,6.08
2019-03-08T10:43:44.077Z,1.50
2019-03-08T10:45:06.368Z,4.22
2019-03-08T10:46:38.666Z,6.58
2019-03-08T10:47:59.171Z,2.87
2019-03-08T10:49:34.446Z,6.03
2019-03-08T10:51:04.267Z,4.83
2019-03-08T10:52:31.089Z,2.83
2019-03-08T10:53:48.820Z,4.87
2019-03-08T10:55:17.703Z,3.75
2019-03-08T10:56:33.401Z,4.53
2019-03-08T10:58:05.638Z,2.70
2019-03-08T10:59:17.291Z,4.25
2019-03-08T11:00:41.397Z,4.80
2019-03-08T11:02:05.273Z,2.95
2019-03-08T11:03:34.450Z,3.30
2019-03-08T11:05:03.117Z,3.42
2019-03-08T11:06:35.187Z,4.12
2019-03-08T11:08:01.952Z,3.08
2019-03-08T11:09:37.612Z,2.58
2019-03-08T11:11:18.628Z,1.47
2019-03-08T11:12:56.732Z,1.82
2019-03-08T11:14:28.788Z,1.92
2019-03-08T11:15:53.666Z,3.55
2019-03-08T11:17:09.982Z,2.87
2019-03-08T11:18:34.549Z,4.28
2019-03-08T11:20:00.987Z,2.17
2019-03-08T11:21:31.152Z,3.62
2019-03-08T11:22:49.451Z,4.97
2019-03-08T11:24:32.028Z,3.72
2019-03-08T11:26:16.477Z,2.92
2019-03-08T11:27:50.262Z,2.95
2019-03-08T11:29:15.683Z,5.72
2019-03-08T11:30:40.787Z,3.72
2019-03-08T11:31:57.767Z,6.90
2019-03-08T11:33:32.502Z,3.75
2019-03-08T11:35:11.013Z,4.35
2019-03-08T11:36:36.614Z,3.25
2019-03-08T11:38:09.494Z,3.00
2019-03-08T11:39:44.561Z,1.07
2019-03-08T11:41:16.271Z,6.47
2019-03-08T11:42:35.837Z,3.58
2019-03-08T11:44:17.319Z,4.40
2019-03-08T11:46:01.647Z,5.15
2019-03-08T11:47:37.094Z,7.85
2019-03-08T11:49:01.473Z,3.65
2019-03-08T11:50:28.923Z,1.75
2019-03-08T11:51:53.915Z,2.60
2019-03-08T11:53:09.858Z,2.67
2019-03-08T11:54:26.920Z,5.08
2019-03-08T11:55:45.382Z,11.35
2019-03-08T11:57:24.965Z,8.38
2019-03-08T11:58:49.584Z,3.47
2019-03-08T12:00:15.784Z,4.15
2019-03-08T12:01:34.129Z,4.62
2019-03-08T12:02:58.697Z,6.47
2019-03-08T12:04:34.239Z,4.35
2019-03-08T12:05:57.738Z,3.37
2019-03-08T12:07:33.468Z,4.75
2019-03-08T12:08:47.580Z,5.53
2019-03-08T12:10:12.784Z,3.30
2019-03-08T12:11:55.067Z,4.17
2019-03-08T12:13:14.438Z,1.75
2019-03-08T12:14:31.731Z,3.60
2019-03-08T12:15:49.459Z,5.47
2019-03-08T12:17:06.663Z,1.95
2019-03-08T12:18:34.221Z,2.90
2019-03-08T12:19:57.595Z,5.58
2019-03-08T12:21:23.497Z,7.08
2019-03-08T12:23:04.566Z,4.28
2019-03-08T12:24:39.904Z,3.47
2019-03-08T12:26:04.727Z,2.33
2019-03-08T12:27:36.644Z,3.05
2019-03-08T12:28:55.077Z,9.78
2019-03-08T12:30:29.995Z,3.60
2019-03-08T12:31:55.682Z,4.90
2019-03-08T12:33:21.362Z,6.33
2019-03-08T12:34:45.898Z,1.32
2019-03-08T12:36:04.192Z,6.62
2019-03-08T12:37:45.606Z,2.20
2019-03-08T12:38:58.320Z,3.35
2019-03-08T12:40:27.625Z,2.75
2019-03-08T12:41:44.712Z,4.10
2019-03-08T12:43:09.406Z,2.50
2019-03-08T12:44:44.229Z,3.98
2019-03-08T12:46:12.794Z,4.62
2019-03-08T12:47:48.349Z,1.82
2019-03-08T12:49:08.426Z,1.72
2019-03-08T12:50:30.967Z,2.98
2019-03-08T12:51:53.009Z,4.33
2019-03-08T12:53:10.449Z,3.42
2019-03-08T12:54:51.873Z,4.35
2019-03-08T12:56:13.329Z,6.22
2019-03-08T12:57:37.603Z,5.42
2019-03-08T12:58:59.755Z,4.08
2019-03-08T13:00:36.357Z,4.15
2019-03-08T13:02:02.063Z,1.90
2019-03-08T13:03:23.456Z,2.40
2019-03-08T13:04:52.412Z,3.22
2019-03-08T13:06:18.370Z,1.95
2019-03-08T13:07:56.056Z,2.35
2019-03-08T13:09:20.847Z,1.40
2019-03-08T13:10:28.119Z,2.87
2019-03-08T13:11:35.167Z,2.58
2019-03-08T13:12:41.906Z,6.72
2019-03-08T13:13:48.822Z,2.80
2019-03-08T13:14:56.067Z,3.35
2019-03-08T13:16:03.192Z,7.95
2019-03-08T13:17:10.328Z,6.37
2019-03-08T13:18:17.381Z,4.10
2019-03-08T13:19:24.577Z,4.75
2019-03-08T13:20:31.769Z,7.67
2019-03-08T13:21:39.161Z,3.58
2019-03-08T13:22:46.518Z,2.08
2019-03-08T13:23:53.661Z,2.27
2019-03-08T13:25:00.629Z,6.37
2019-03-08T13:26:07.879Z,3.37
2019-03-08T13:27:14.702Z,2.40
2019-03-08T13:28:22.032Z,4.22
2019-03-08T13:29:29.255Z,1.85
2019-03-08T13:30:37.280Z,7.40
2019-03-08T13:31:44.860Z,3.95
2019-03-08T13:32:52.118Z,4.53
2019-03-08T13:33:59.110Z,1.95
2019-03-08T13:35:06.424Z,1.55
2019-03-08T13:36:13.739Z,6.17
2019-03-08T13:37:20.944Z,5.00
2019-03-08T13:38:28.161Z,5.92
2019-03-08T13:39:35.521Z,6.47
2019-03-08T13:40:42.677Z,9.53
2019-03-08T13:41:51.039Z,2.45
2019-03-08T13:42:58.311Z,3.42
2019-03-08T13:44:05.284Z,4.62
2019-03-08T13:45:14.251Z,1.65
2019-03-08T13:46:21.829Z,2.98
2019-03-08T13:47:29.269Z,4.08
2019-03-08T13:48:36.787Z,1.60
2019-03-08T13:49:43.935Z,2.20
2019-03-08T13:50:51.533Z,3.05
2019-03-08T13:51:59.089Z,5.37
2019-03-08T13:53:06.775Z,4.37
2019-03-08T13:54:14.184Z,2.90
2019-03-08T13:55:21.633Z,8.33
2019-03-08T13:56:29.449Z,5.30
2019-03-08T13:57:37.314Z,2.42
2019-03-08T13:58:44.962Z,4.20
2019-03-08T13:59:55.686Z,4.00
2019-03-08T14:01:03.403Z,2.42
2019-03-08T14:02:10.752Z,3.50
2019-03-08T14:03:18.519Z,2.15
2019-03-08T14:04:26.291Z,2.30
2019-03-08T14:05:33.919Z,3.35
2019-03-08T14:06:41.328Z,4.12
2019-03-08T14:07:49.055Z,4.60
2019-03-08T14:08:56.076Z,2.87
2019-03-08T14:10:03.449Z,5.00
2019-03-08T14:11:10.904Z,1.67
2019-03-08T14:12:17.975Z,5.55
2019-03-08T14:13:25.273Z,4.67
2019-03-08T14:14:32.620Z,4.58
2019-03-08T14:15:40.029Z,3.70
2019-03-08T14:16:47.358Z,7.30
2019-03-08T14:17:54.389Z,3.52
2019-03-08T14:19:01.550Z,4.92
2019-03-08T14:20:17.270Z,1.82
2019-03-08T14:21:24.587Z,2.25
2019-03-08T14:22:32.954Z,4.40
2019-03-08T14:23:40.222Z,3.12
2019-03-08T14:24:47.230Z,4.58
2019-03-08T14:25:55.374Z,5.55
2019-03-08T14:27:03.076Z,7.03
2019-03-08T14:28:10.326Z,4.85
2019-03-08T14:29:18.779Z,3.90
2019-03-08T14:30:26.934Z,2.37
2019-03-08T14:32:05.634Z,6.25
2019-03-08T14:33:13.457Z,3.50
2019-03-08T14:34:20.850Z,3.98
2019-03-08T14:35:29.682Z,3.27
2019-03-08T14:36:39.079Z,3.40
2019-03-08T14:37:46.845Z,5.50
2019-03-08T14:38:53.917Z,5.95
2019-03-08T14:40:01.176Z,7.90
2019-03-08T14:41:31.779Z,2.35
2019-03-08T14:42:48.695Z,2.62
2019-03-08T14:44:01.912Z,2.72
2019-03-08T14:45:29.059Z,3.05
2019-03-08T14:47:12.490Z,3.65
2019-03-08T14:48:19.961Z,5.35
2019-03-08T14:49:27.490Z,5.67
2019-03-08T14:50:35.514Z,4.45
2019-03-08T14:51:44.729Z,3.08
2019-03-08T14:52:55.323Z,3.25
2019-03-08T14:54:01.370Z,4.87
2019-03-08T14:55:10.982Z,5.03
2019-03-08T14:56:18.454Z,8.55
2019-03-08T14:57:27.214Z,2.65
2019-03-08T14:58:36.772Z,2.27
2019-03-08T14:59:44.066Z,3.47
2019-03-08T15:00:51.819Z,1.95
2019-03-08T15:01:59.010Z,2.87
2019-03-08T15:03:06.779Z,3.98
2019-03-08T15:04:14.076Z,2.72
2019-03-08T15:05:22.620Z,2.87
2019-03-08T15:06:30.067Z,6.15
2019-03-08T15:07:41.130Z,2.35
2019-03-08T15:08:47.139Z,3.02
2019-03-08T15:09:54.880Z,4.00
2019-03-08T15:11:02.493Z,7.80
2019-03-08T15:12:16.545Z,5.87
2019-03-08T15:13:20.163Z,3.12
2019-03-08T15:14:30.204Z,3.50
2019-03-08T15:15:38.048Z,4.15
2019-03-08T15:16:46.129Z,3.12
2019-03-08T15:17:55.250Z,5.15
2019-03-08T15:19:04.032Z,5.17
2019-03-08T15:20:15.389Z,8.90
2019-03-08T15:21:22.637Z,3.98
2019-03-08T15:22:30.042Z,5.90
2019-03-08T15:23:37.314Z,3.92
2019-03-08T15:24:44.463Z,3.27
2019-03-08T15:25:51.984Z,2.62
2019-03-08T15:26:59.538Z,3.55
2019-03-08T15:28:07.529Z,5.95
2019-03-08T15:29:15.628Z,3.87
2019-03-08T15:30:24.463Z,3.55
2019-03-08T15:31:32.279Z,4.95
2019-03-08T15:32:39.912Z,4.55
2019-03-08T15:33:47.530Z,1.75
2019-03-08T15:34:55.901Z,3.75
2019-03-08T15:36:02.999Z,3.65
2019-03-08T15:37:10.452Z,4.17
2019-03-08T15:38:19.349Z,2.55
2019-03-08T15:39:31.564Z,1.87
2019-03-08T15:40:39.029Z,3.77
2019-03-08T15:41:46.675Z,3.00
2019-03-08T15:42:54.286Z,3.22
2019-03-08T15:44:01.747Z,3.45
2019-03-08T15:45:10.080Z,3.10
2019-03-08T15:46:18.717Z,4.53
2019-03-08T15:47:27.132Z,4.30
2019-03-08T15:48:34.968Z,2.72
2019-03-08T15:49:43.978Z,3.55
2019-03-08T15:50:51.850Z,2.90
2019-03-08T15:51:59.943Z,5.08
2019-03-08T15:53:08.811Z,3.80
2019-03-08T15:54:16.454Z,3.92
2019-03-08T15:55:24.302Z,5.60
2019-03-08T15:56:32.069Z,5.28
2019-03-08T15:57:39.798Z,4.08
2019-03-08T15:58:47.376Z,4.72
2019-03-08T15:59:55.090Z,3.72
2019-03-08T16:01:02.552Z,4.95
2019-03-08T16:02:10.553Z,3.30
2019-03-08T16:03:18.178Z,4.30
2019-03-08T16:04:25.550Z,6.35
2019-03-08T16:05:32.779Z,5.67
2019-03-08T16:06:44.033Z,3.25
2019-03-08T16:07:49.922Z,5.92
2019-03-08T16:08:57.891Z,4.42
2019-03-08T16:10:05.830Z,5.75
2019-03-08T16:11:13.477Z,6.12
2019-03-08T16:12:21.086Z,4.08
2019-03-08T16:13:28.939Z,7.10
2019-03-08T16:14:36.542Z,3.05